Terminal Aerodrome Forecast
Issued by NWS Burlington, VT

Home | Current Version | Previous Version | Text Only | Print | Product List | Glossary On
Versions: 1 2 3 4 5 6 7 8 9 10 11 12 13 14 15 16
000
FTUS41 KBTV 181700
TAFBTV
TAF
KBTV 181728Z 1818/1918 19014G20KT P6SM BKN150 BKN200
     FM190200 19008KT P6SM OVC080
     FM190400 19007KT P6SM -SHRA OVC040
     FM190800 27007KT P6SM -SHRA OVC035
     FM191400 33012KT P6SM BKN035=

USA.gov is the U.S. government's official web portal to all federal, state and local government web resources and services.